Auxier, KY

8:21 AM EDT on July 28, 2014 (GMT -0400)
Paintsville, KY (KKYPAINT2) Elev 620 ft | 37.82 °N, 82.82 °W | Change Station

Current weather conditions updated 43 seconds ago

Clear
Clear
65.2 °F
Feels Like 65.2 °F
N
1.0
Wind Variable Wind from NNE
Gusts 4.0 mph

Today is forecast to be Cooler than yesterday.

Today
High -- | Low -- °F
--% Chance of Precip.
Yesterday
High -- | Low -- °F
Precip. -- in
6:31 AM 8:43 PM
New Moon, 2% visible
Pressure 29.88 in
Visibility 10.0 miles
Clouds Clear
Dew Point 64 °F
Humidity 97%
Rainfall 0.00 in
Snow Depth Not available.
UV 0.9 out of 12
Pollen 3.60 out of 12
Air Quality Not available.
Flu Activity Not available.
METAR KJKL 281153Z AUTO VRB06KT 10SM CLR 18/16 A2992 RMK AO2 SLP118 70133 T01830156 10194 20172 53008

More Conditions Fewer Conditions

Pressure 29.88 in
Visibility 10.0 miles
Clouds Clear
Dew Point 64 °F
Humidity 97%
Rainfall 0.00 in
Snow Depth Not available.
UV 0.9 out of 12
Pollen 3.60 out of 12
Air Quality Not available.
Flu Activity Not available.
METAR KJKL 281153Z AUTO VRB06KT 10SM CLR 18/16 A2992 RMK AO2 SLP118 70133 T01830156 10194 20172 53008

More Conditions Fewer Conditions

10-Day Weather Forecast

Almanac

Astronomy

Jul. 28, 2014 Rise Set
Actual Time 6:31 AM EDT 8:43 PM EDT
Civil Twilight 6:01 AM EDT 9:12 PM EDT
Nautical Twilight 5:25 AM EDT 9:48 PM EDT
Astronomical Twilight 4:46 AM EDT 10:27 PM EDT
Moon 8:08 AM EDT 9:27 PM EDT
Length of Visible Light 15h 10m
Length of Day
14h 11m
Tomorrow will be 1m 43s shorter.
New Moon, 2% of the Moon is Illuminated
Today
New Moon
Aug 3
First Quarter
Aug 10
Full
Aug 17
Last Quarter
Aug 25
New

Today's Extremes

State Highs State Lows

Community

WunderPhotos

Upload Photos

1,738,311 photos uploaded!

Nearby

Snow Depth

Station Depth Elevation
No new snow has been reported.

Earthquake Activity

City Distance Mag. Time & Date
No recent earthquake activity has been reported nearby.
Minimum magnitude displayed is 2.5.

Coastal Water Temperatures

Place Temperature
No Stations Reporting

Nearby Weather Stations

Station Location Temp. Dew Point Humidity Wind Precip. Elev Updated Type
Paintsville, KY, Paintsville, KY 65.2 °F 64 °F 97% NNE  at  1.0 mph 0.00 in / hr 620 ft 8:21 AM EDT Normal
Middle Creek Battlefield Area, Prestonsburg, KY 63.1 °F 60 °F 90% North  at  0.0 mph 0.00 in / hr 728 ft 8:21 AM EDT Rapid Fire
Middle Creek VFD Station 2, Prestonsburg, KY 67.0 °F 66 °F 97% North  at  0.0 mph 0.00 in / hr 689 ft 8:21 AM EDT Rapid Fire
Quail Ridge, Pikeville, KY 66.9 °F 67 °F 99% ESE  at  0.0 mph 0.00 in / hr 778 ft 8:21 AM EDT Rapid Fire
Ratliff Creek, Pikeville, KY 65.1 °F 65 °F 99% North  at  0.0 mph 0.00 in / hr 699 ft 8:20 AM EDT Normal
East Kentucky Broadcasting, Pikeville, KY 66.6 °F 64 °F 92% NW  at  0.0 mph 0.00 in / hr 686 ft 8:21 AM EDT Rapid Fire
Pikeville Medical Center, Pikeville, KY 67.8 °F 65 °F 90% NNW  at  0.0 mph 0.00 in / hr 683 ft 8:20 AM EDT Normal

Show More Stations Show Fewer Stations